Huvudsida
METAR-TAF:

METAR-TAF

Flygplatser :

Pago Pago, Förenta staternas avlägset belägna öar

Pago Pago International Airport

latitud: 14-20S, longitud: 170-43W, höjd: 3 m

Aktuellt väderrapport

Denna rapport gjordes för 7 timmar och 30 minuter sedan, klockan 13:50 UTC
Vind 3 kt varierande vindriktning
Temperatur 25°C
Fuktighet 89%
Tryck 1005 hPa
Sikt: 16.1 km
Få moln på en höjd av 2200 ft
Få moln på en höjd av 10000 ft
Spridda moln på en höjd av 20000 ft

METAR: NSTU 201350Z VRB03KT 10SM FEW022 FEW100 SCT200 25/23 A2967 RMK SLP047 T02500231

Tid: 10:20 (21:20 UTC)

Väderprognos

Denna rapport gjordes för 9 timmar och 44 minuter sedan, klockan 11:36 UTC
Prognos gäller från 20 kl. 12 UTC till 21 kl. 12 UTC
Vind 5 kt varierande vindriktning
Sikt: 10 km
Spridda moln på en höjd av 2000 ft
Spridda moln på en höjd av 4000 ft
Spridda moln på en höjd av 20000 ft

TAF: NSTU 201136Z 2012/2112 VRB05KT P6SM SCT020 SCT040 SCT200

Aktuella väderrapporter och prognoser från 4000 flygplatser (METAR- och TAF-rapporter).

De tillgängliga stationerna syns som gula och röda prickar på kartan.

För musen över prickarna för att se namnen på stationerna.

Klicka sedan för att få väderrapporter och prognoser.

För att ändra kartan: Klicka på de gröna knapparna med ett svart kors på för att zooma in; den gröna knappen med ett streck på för att zooma ut; eller på de gröna pilarna för angränsande kartor.


METAR-TAF: